Flight Track Log - Related Links

Times and Time Zones

All times are in EDT time to prevent confusion due to time zone crossing. See the N28SP flight status page for this flight to view local times or setup timezone preferences in your user account.

Time Position Orientation Groundspeed Altitude Reporting Facility
EDT Latitude Longitude Course Direction KTS MPH feet Rate Location/Type
Sun 04:07:19 PM 29.9683 -95.3475 221° Southwest 148 170 600  Level Houston Center
Sun 04:07:55 PM 29.9492 -95.3667 221° Southwest 172 198 2,000 2,103 Climbing Houston Center
Sun 04:08:56 PM 29.9356 -95.4239 255° West 211 243 4,000 2,459 Climbing Houston Center
Sun 04:09:57 PM 29.9506 -95.4969 283° West 208 239 7,000 2,705 Climbing Houston Center
Sun 04:10:58 PM 29.9625 -95.5606 282° West 207 238 9,500 2,271 Climbing Houston Center
Sun 04:12:17 PM 29.9786 -95.6378 284° West 213 245 12,300 2,128 Climbing Houston Center
Sun 04:13:19 PM 29.9944 -95.7058 285° West 218 251 14,500 2,049 Climbing Houston Center
Sun 04:14:20 PM 30.0086 -95.7753 283° West 224 258 16,500 2,244 Climbing Houston Center
Sun 04:15:22 PM 30.0283 -95.8639 284° West 236 272 19,100 2,129 Climbing Houston Center
Sun 04:16:24 PM 30.0439 -95.9375 284° West 236 272 20,900 1,805 Climbing Houston Center
Sun 04:17:25 PM 30.0606 -96.0164 284° West 252 290 22,800 1,707 Climbing Houston Center
Sun 04:18:27 PM 30.0756 -96.0869 284° West 249 287 24,400 1,659 Climbing Houston Center
Sun 04:19:28 PM 30.0892 -96.1825 279° West 251 289 26,200 1,512 Climbing Houston Center
Sun 04:20:30 PM 30.1019 -96.2669 280° West 264 304 27,500 1,220 Climbing Houston Center
Sun 04:21:31 PM 30.1161 -96.3547 281° West 277 319 28,700 1,122 Climbing Houston Center
Sun 04:22:33 PM 30.1303 -96.4486 280° West 285 328 29,800 976 Climbing Houston Center
Sun 04:23:34 PM 30.1447 -96.5453 280° West 297 342 30,700 976 Climbing Houston Center
Sun 04:24:36 PM 30.1592 -96.6442 280° West 306 352 31,800 1,122 Climbing Houston Center
Sun 04:25:37 PM 30.1736 -96.7433 280° West 308 354 33,000 1,122 Climbing Houston Center
Sun 04:26:39 PM 30.1886 -96.8389 280° West 302 348 34,100 1,016 Climbing Houston Center
Sun 04:27:41 PM 30.2019 -96.9361 279° West 303 349 35,100 878 Climbing Houston Center
Sun 04:28:42 PM 30.2167 -97.0325 280° West 302 348 35,900 976 Climbing Houston Center
Sun 04:29:44 PM 30.2311 -97.1303 280° West 303 349 37,100 976 Climbing Houston Center
Sun 04:30:45 PM 30.2453 -97.2275 280° West 302 348 37,900 439 Climbing Houston Center
Sun 04:31:47 PM 30.2758 -97.3378 288° West 306 352 38,000 49 Climbing Houston Center
Sun 04:32:48 PM 30.3039 -97.4464 287° West 340 391 38,000  Level Houston Center
Sun 04:33:50 PM 30.3339 -97.5589 287° West 358 412 38,000  Level Houston Center
Sun 04:34:52 PM 30.3664 -97.6808 287° West 386 444 38,000  Level Houston Center
Sun 04:35:53 PM 30.3989 -97.8039 287° West 393 452 38,000  Level Houston Center
Sun 04:36:55 PM 30.4311 -97.9272 287° West 396 456 38,000  Level Houston Center
Sun 04:37:56 PM 30.4758 -98.0469 293° West 397 457 38,000  Level Houston Center
Sun 04:38:58 PM 30.5247 -98.1644 296° West 400 460 38,000  Level Houston Center
Sun 04:39:59 PM 30.5733 -98.2797 296° West 394 453 38,000  Level Houston Center
Sun 04:41:01 PM 30.6219 -98.3964 296° West 396 456 38,000  Level Houston Center
Sun 04:42:03 PM 30.6700 -98.5125 296° West 395 455 38,000  Level Houston Center
Sun 04:43:04 PM 30.7172 -98.6281 295° West 393 452 38,000  Level Houston Center
Sun 04:44:06 PM 30.7647 -98.7433 296° West 392 451 38,000  Level Houston Center
Sun 04:45:08 PM 30.8192 -98.8772 295° West 389 448 38,000  Level Houston Center
Sun 04:46:09 PM 30.8661 -98.9939 295° West 394 453 38,000  Level Houston Center
Sun 04:47:11 PM 30.9122 -99.1106 295° West 392 451 38,000  Level Houston Center
Sun 04:48:13 PM 30.9636 -99.2333 296° West 398 458 38,000  Level Houston Center
Sun 04:49:14 PM 31.0100 -99.3494 295° West 396 456 38,000  Level Houston Center
Sun 04:50:16 PM 31.0558 -99.4653 295° West 397 457 38,000  Level Houston Center
Sun 04:51:17 PM 31.1017 -99.5772 296° West 387 445 38,000  Level Houston Center
Sun 04:52:19 PM 31.1492 -99.6964 295° West 403 464 38,000  Level Houston Center
Sun 04:53:21 PM 31.1961 -99.8136 295° West 397 457 38,000  Level Houston Center
Sun 04:54:22 PM 31.2406 -99.9306 294° West 397 457 38,000  Level Houston Center
Sun 04:55:24 PM 31.2978 -100.0708 296° West 400 460 38,000  Level Houston Center
Sun 04:56:26 PM 31.3428 -100.1872 294° West 396 456 38,000  Level Houston Center
Sun 04:57:27 PM 31.3883 -100.3042 295° West 397 457 38,000  Level Houston Center
Sun 04:58:29 PM 31.4344 -100.4200 295° West 397 457 38,000  Level Houston Center
Sun 04:59:31 PM 31.4789 -100.5350 294° West 390 449 38,000  Level Houston Center
Sun 05:00:32 PM 31.5247 -100.6542 294° West 399 459 38,000  Level Houston Center
Sun 05:01:08 PM 31.5597 -100.7386 296° West 394 453 38,000  Level Fort Worth Center
Sun 05:02:08 PM 31.6025 -100.8550 293° West 394 453 38,000  Level Fort Worth Center
Sun 05:03:08 PM 31.6472 -100.9761 293° West 399 459 38,000  Level Fort Worth Center
Sun 05:04:08 PM 31.6917 -101.0925 294° West 399 459 38,000  Level Fort Worth Center
Sun 05:05:08 PM 31.7383 -101.2092 295° West 399 459 38,000  Level Fort Worth Center
Sun 05:06:08 PM 31.7828 -101.3258 294° West 399 459 38,000  Level Fort Worth Center
Sun 05:07:08 PM 31.8292 -101.4453 295° West 399 459 38,000  Level Fort Worth Center
Sun 05:08:08 PM 31.8675 -101.5497 293° West 399 459 38,000  Level Fort Worth Center
Sun 05:09:08 PM 31.9097 -101.6642 294° West 399 459 38,000  Level Fort Worth Center
Sun 05:10:08 PM 31.9536 -101.7811 294° West 394 453 38,000  Level Fort Worth Center
Sun 05:11:08 PM 31.9975 -101.8983 294° West 388 447 38,000  Level Fort Worth Center
Sun 05:12:08 PM 32.0414 -102.0133 294° West 388 447 38,000  Level Fort Worth Center
Sun 05:13:08 PM 32.0831 -102.1281 293° West 383 441 38,000  Level Fort Worth Center
Sun 05:14:08 PM 32.1247 -102.2406 294° West 383 441 38,000  Level Fort Worth Center
Sun 05:15:08 PM 32.1658 -102.3656 291° West 378 435 38,000  Level Fort Worth Center
Sun 05:16:08 PM 32.2069 -102.4831 292° West 378 435 38,000  Level Fort Worth Center
Sun 05:17:08 PM 32.2483 -102.5961 293° West 378 435 38,000  Level Fort Worth Center
Sun 05:18:08 PM 32.2914 -102.7114 294° West 383 441 38,000  Level Fort Worth Center
Sun 05:19:08 PM 32.3344 -102.8294 293° West 383 441 38,000  Level Fort Worth Center
Sun 05:20:08 PM 32.3775 -102.9453 294° West 383 441 38,000  Level Fort Worth Center
Sun 05:21:08 PM 32.4183 -103.0561 294° West 378 435 38,000  Level Fort Worth Center
Sun 05:22:08 PM 32.4611 -103.1719 294° West 378 435 38,000  Level Fort Worth Center
Sun 05:23:08 PM 32.5039 -103.2853 294° West 378 435 38,000  Level Fort Worth Center
Sun 05:24:08 PM 32.5422 -103.4014 291° West 378 435 38,000  Level Fort Worth Center
Sun 05:25:08 PM 32.5867 -103.5175 294° West 378 435 38,000 462 Level Fort Worth Center
Sun 05:25:39 PM 32.5994 -103.5592 290° West 381 438 38,700 1,304 Climbing Albuquerque Center
Sun 05:26:40 PM 32.6350 -103.6650 292° West 355 409 40,000 639 Climbing Albuquerque Center
Sun 05:27:41 PM 32.6811 -103.7828 295° West 340 391 40,000  Level Albuquerque Center
Sun 05:28:43 PM 32.7186 -103.8914 292° West 352 405 40,000  Level Albuquerque Center
Sun 05:29:44 PM 32.7575 -104.0033 292° West 364 419 40,000  Level Albuquerque Center
Sun 05:30:45 PM 32.7994 -104.1261 292° West 370 426 40,000  Level Albuquerque Center
Sun 05:31:47 PM 32.8389 -104.2406 292° West 374 430 40,000  Level Albuquerque Center
Sun 05:32:48 PM 32.8789 -104.3556 293° West 377 434 40,000  Level Albuquerque Center
Sun 05:33:49 PM 32.9214 -104.4800 292° West 377 434 40,000  Level Albuquerque Center
Sun 05:34:51 PM 32.9606 -104.5972 292° West 379 436 40,000  Level Albuquerque Center
Sun 05:35:52 PM 33.0006 -104.7142 292° West 380 437 40,000  Level Albuquerque Center
Sun 05:36:53 PM 33.0397 -104.8322 292° West 383 441 40,000  Level Albuquerque Center
Sun 05:37:55 PM 33.0794 -104.9489 292° West 380 437 40,000  Level Albuquerque Center
Sun 05:38:56 PM 33.1222 -105.0736 292° West 379 436 40,000  Level Albuquerque Center
Sun 05:39:58 PM 33.1628 -105.1900 293° West 379 436 40,000  Level Albuquerque Center
Sun 05:40:59 PM 33.2017 -105.3072 292° West 378 435 40,000  Level Albuquerque Center
Sun 05:42:00 PM 33.2542 -105.4275 298° West 382 440 40,000  Level Albuquerque Center
Sun 05:43:02 PM 33.3139 -105.5283 305° West 374 430 40,000  Level Albuquerque Center
Sun 05:44:03 PM 33.3694 -105.6231 305° West 376 433 40,000  Level Albuquerque Center
Sun 05:45:04 PM 33.4297 -105.7239 306° West 376 433 40,000  Level Albuquerque Center
Sun 05:46:05 PM 33.4892 -105.8256 305° West 375 432 40,000  Level Albuquerque Center
Sun 05:47:07 PM 33.5483 -105.9261 305° West 373 429 40,000  Level Albuquerque Center
Sun 05:48:08 PM 33.6178 -106.0492 304° West 372 428 40,000  Level Albuquerque Center
Sun 05:49:09 PM 33.6772 -106.1492 306° West 372 428 40,000  Level Albuquerque Center
Sun 05:50:11 PM 33.7322 -106.2433 305° West 369 425 40,000  Level Albuquerque Center
Sun 05:51:12 PM 33.7633 -106.3611 288° West 374 430 40,000  Level Albuquerque Center
Sun 05:52:13 PM 33.7814 -106.4850 280° West 377 434 40,000  Level Albuquerque Center
Sun 05:53:15 PM 33.8133 -106.6125 287° West 380 437 40,000  Level Albuquerque Center
Sun 05:54:16 PM 33.8522 -106.7311 292° West 381 438 40,000  Level Albuquerque Center
Sun 05:55:17 PM 33.8872 -106.8503 290° West 380 437 40,000  Level Albuquerque Center
Sun 05:56:19 PM 33.9222 -106.9711 289° West 381 438 40,000  Level Albuquerque Center
Sun 05:57:20 PM 33.9644 -107.1186 289° West 386 444 40,000  Level Albuquerque Center
Sun 05:58:21 PM 33.9997 -107.2389 290° West 387 445 40,000  Level Albuquerque Center
Sun 05:59:23 PM 34.0336 -107.3586 289° West 383 441 40,000  Level Albuquerque Center
Sun 06:00:24 PM 34.0681 -107.4792 289° West 381 438 40,000 98 Level Albuquerque Center
Sun 06:01:25 PM 34.1114 -107.5958 294° West 381 438 40,200 1,463 Climbing Albuquerque Center
Sun 06:02:27 PM 34.1358 -107.7044 285° West 352 405 43,000 1,366 Climbing Albuquerque Center
Sun 06:03:28 PM 34.1617 -107.8025 288° West 315 362 43,000  Level Albuquerque Center
Sun 06:04:29 PM 34.1911 -107.9094 288° West 327 376 43,000  Level Albuquerque Center
Sun 06:05:30 PM 34.2222 -108.0206 289° West 341 392 43,000  Level Albuquerque Center
Sun 06:06:32 PM 34.2536 -108.1358 288° West 355 409 43,000  Level Albuquerque Center
Sun 06:07:33 PM 34.2942 -108.2772 289° West 367 422 43,000 -49 Level Albuquerque Center
Sun 06:08:34 PM 34.3269 -108.3936 289° West 368 423 42,900 49 Descending Albuquerque Center
Sun 06:09:36 PM 34.3567 -108.5056 288° West 357 411 43,100 49 Climbing Albuquerque Center
Sun 06:10:37 PM 34.3864 -108.6056 290° West 341 392 43,000 -49 Descending Albuquerque Center
Sun 06:11:38 PM 34.4203 -108.7272 289° West 339 390 43,000  Level Albuquerque Center
Sun 06:12:40 PM 34.4503 -108.8350 289° West 345 397 43,000  Level Albuquerque Center
Sun 06:13:41 PM 34.4847 -108.9672 288° West 357 411 43,000  Level Albuquerque Center
Sun 06:14:42 PM 34.5164 -109.0831 288° West 368 423 43,000  Level Albuquerque Center
Sun 06:15:44 PM 34.5475 -109.1997 288° West 374 430 43,000  Level Albuquerque Center
Sun 06:16:45 PM 34.5847 -109.3350 289° West 377 434 43,000  Level Albuquerque Center
Sun 06:17:46 PM 34.6147 -109.4489 288° West 374 430 43,000  Level Albuquerque Center
Sun 06:18:48 PM 34.6461 -109.5656 288° West 376 433 43,000  Level Albuquerque Center
Sun 06:19:49 PM 34.6828 -109.7019 288° West 378 435 43,000  Level Albuquerque Center
Sun 06:20:50 PM 34.7125 -109.8181 287° West 377 434 43,000  Level Albuquerque Center
Sun 06:21:52 PM 34.7489 -109.9531 288° West 376 433 43,000  Level Albuquerque Center
Sun 06:22:53 PM 34.7786 -110.0686 287° West 375 432 43,000  Level Albuquerque Center
Sun 06:23:54 PM 34.8106 -110.1883 288° West 382 440 43,000  Level Albuquerque Center
Sun 06:24:56 PM 34.8461 -110.3256 288° West 383 441 43,000  Level Albuquerque Center
Sun 06:25:57 PM 34.8767 -110.4408 288° West 378 435 43,000  Level Albuquerque Center
Sun 06:26:59 PM 34.9047 -110.5572 286° West 375 432 43,000  Level Albuquerque Center
Sun 06:28:00 PM 34.9375 -110.6908 287° West 371 427 43,000  Level Albuquerque Center
Sun 06:29:01 PM 34.9661 -110.8064 287° West 373 429 43,000  Level Albuquerque Center
Sun 06:30:03 PM 34.9953 -110.9253 287° West 371 427 43,000  Level Albuquerque Center
Sun 06:31:04 PM 35.0258 -111.0453 287° West 372 428 43,000  Level Albuquerque Center
Sun 06:32:05 PM 35.0569 -111.1678 287° West 374 430 43,000  Level Albuquerque Center
Sun 06:33:07 PM 35.0936 -111.3144 287° West 378 435 43,000  Level Albuquerque Center
Sun 06:34:08 PM 35.1239 -111.4353 287° West 377 434 43,000  Level Albuquerque Center
Sun 06:35:09 PM 35.1533 -111.5561 287° West 375 432 43,000  Level Albuquerque Center
Sun 06:36:11 PM 35.1825 -111.6767 287° West 374 430 43,000  Level Albuquerque Center
Sun 06:37:12 PM 35.2119 -111.7939 287° West 370 426 43,000  Level Albuquerque Center
Sun 06:38:13 PM 35.2414 -111.9131 287° West 370 426 43,000  Level Albuquerque Center
Sun 06:39:14 PM 35.2697 -112.0347 286° West 372 428 43,000  Level Albuquerque Center
Sun 06:40:16 PM 35.3000 -112.1556 287° West 373 429 43,000  Level Albuquerque Center
Sun 06:41:17 PM 35.3350 -112.3008 286° West 374 430 43,000  Level Albuquerque Center
Sun 06:42:18 PM 35.3644 -112.4228 287° West 376 433 43,000  Level Albuquerque Center
Sun 06:43:19 PM 35.3931 -112.5458 286° West 377 434 43,000  Level Albuquerque Center
Sun 06:44:30 PM 35.4244 -112.6836 286° West 372 428 43,000  Level Los Angeles Center
Sun 06:45:32 PM 35.4544 -112.8069 287° West 375 432 43,000  Level Los Angeles Center
Sun 06:46:33 PM 35.4775 -112.9056 286° West 376 433 43,000  Level Los Angeles Center
Sun 06:47:35 PM 35.5133 -113.0631 286° West 380 437 43,000  Level Los Angeles Center
Sun 06:48:37 PM 35.5433 -113.1892 286° West 385 443 43,000  Level Los Angeles Center
Sun 06:49:39 PM 35.5753 -113.3275 286° West 383 441 43,000  Level Los Angeles Center
Sun 06:50:41 PM 35.6036 -113.4522 286° West 383 441 43,000  Level Los Angeles Center
Sun 06:51:42 PM 35.6322 -113.5778 286° West 387 445 43,000  Level Los Angeles Center
Sun 06:52:56 PM 35.6767 -113.7233 291° West 384 442 43,000  Level Los Angeles Center
Sun 06:53:58 PM 35.7150 -113.8611 289° West 381 438 43,000  Level Los Angeles Center
Sun 06:55:00 PM 35.7483 -113.9836 289° West 378 435 43,000  Level Los Angeles Center
Sun 06:56:02 PM 35.7828 -114.1056 289° West 378 435 43,000  Level Los Angeles Center
Sun 06:57:03 PM 35.8256 -114.2531 290° West 379 436 43,000  Level Los Angeles Center
Sun 06:58:05 PM 35.8592 -114.3758 289° West 378 435 43,000  Level Los Angeles Center
Sun 06:59:07 PM 35.8942 -114.4978 290° West 377 434 43,000  Level Los Angeles Center
Sun 07:00:08 PM 35.9269 -114.6219 288° West 380 437 43,000  Level Los Angeles Center
Sun 07:01:10 PM 35.9611 -114.7456 289° West 379 436 43,000  Level Los Angeles Center
Sun 07:02:12 PM 35.9961 -114.8686 289° West 379 436 43,000  Level Los Angeles Center
Sun 07:03:13 PM 36.0194 -114.9953 283° West 376 433 43,000  Level Los Angeles Center
Sun 07:04:15 PM 36.0472 -115.1219 285° West 380 437 43,000  Level Los Angeles Center
Sun 07:05:17 PM 36.0783 -115.2758 284° West 386 444 43,000  Level Los Angeles Center
Sun 07:06:18 PM 36.1028 -115.4028 283° West 381 438 43,000  Level Los Angeles Center
Sun 07:07:20 PM 36.1250 -115.5306 282° West 377 434 43,000  Level Los Angeles Center
Sun 07:08:22 PM 36.1522 -115.6639 284° West 392 451 43,000  Level Los Angeles Center
Sun 07:09:23 PM 36.1789 -115.7953 284° West 389 448 43,000  Level Los Angeles Center
Sun 07:10:25 PM 36.2033 -115.9139 284° West 386 444 43,000  Level Los Angeles Center
Sun 07:11:27 PM 36.2281 -116.0439 283° West 386 444 43,000  Level Los Angeles Center
Sun 07:12:28 PM 36.2578 -116.1975 284° West 383 441 43,000  Level Los Angeles Center
Sun 07:13:30 PM 36.2800 -116.3156 283° West 386 444 43,000  Level Los Angeles Center
Sun 07:14:32 PM 36.3053 -116.4439 284° West 386 444 43,000  Level Los Angeles Center
Sun 07:15:33 PM 36.3294 -116.5736 283° West 388 447 43,000  Level Los Angeles Center
Sun 07:16:35 PM 36.3578 -116.7269 283° West 384 442 43,000  Level Los Angeles Center
Sun 07:17:37 PM 36.3811 -116.8561 283° West 384 442 43,000  Level Los Angeles Center
Sun 07:18:38 PM 36.4053 -116.9861 283° West 387 445 43,000  Level Los Angeles Center
Sun 07:19:40 PM 36.4292 -117.1142 283° West 386 444 43,000  Level Los Angeles Center
Sun 07:20:42 PM 36.4525 -117.2433 283° West 385 443 43,000  Level Los Angeles Center
Sun 07:21:43 PM 36.4761 -117.3750 283° West 389 448 43,000  Level Los Angeles Center
Sun 07:22:45 PM 36.4992 -117.5064 282° West 390 449 43,000  Level Los Angeles Center
Sun 07:23:46 PM 36.5264 -117.6622 282° West 388 447 43,000  Level Los Angeles Center
Sun 07:24:48 PM 36.5522 -117.7928 284° West 385 443 43,000  Level Los Angeles Center
Sun 07:25:50 PM 36.6017 -117.9103 298° West 404 465 43,000  Level Los Angeles Center
Sun 07:28:18 PM 36.7178 -118.2039 296° West 397 457 43,000  Level Los Angeles Center
Sun 07:29:19 PM 36.7636 -118.3267 295° West 394 453 43,000  Level Los Angeles Center
Sun 07:30:24 PM 36.8028 -118.4889 287° West 392 451 43,000  Level Oakland Center
Sun 07:31:25 PM 36.8372 -118.6175 289° West 392 451 43,000  Level Oakland Center
Sun 07:32:26 PM 36.8717 -118.7444 289° West 389 448 43,000 -443 Level Oakland Center
Sun 07:33:27 PM 36.9044 -118.8736 288° West 391 450 42,100 -878 Descending Oakland Center
Sun 07:34:29 PM 36.9397 -119.0075 288° West 401 461 41,200 -927 Descending Oakland Center
Sun 07:35:30 PM 36.9756 -119.1436 288° West 407 468 40,200 -984 Descending Oakland Center
Sun 07:36:31 PM 37.0111 -119.2822 288° West 413 475 39,200 -934 Descending Oakland Center
Sun 07:37:32 PM 37.0464 -119.4186 288° West 414 476 38,300 -585 Descending Oakland Center
Sun 07:38:34 PM 37.0800 -119.5503 288° West 410 472 38,000 -146 Descending Oakland Center
Sun 07:39:35 PM 37.1208 -119.7136 287° West 410 472 38,000  Level Oakland Center
Sun 07:40:36 PM 37.1550 -119.8486 288° West 404 465 38,000  Level Oakland Center
Sun 07:41:37 PM 37.1892 -119.9833 288° West 405 466 38,000  Level Oakland Center
Sun 07:42:39 PM 37.2228 -120.1186 287° West 407 468 38,000  Level Oakland Center
Sun 07:43:40 PM 37.2567 -120.2550 287° West 408 470 38,000 -443 Level Oakland Center
Sun 07:44:41 PM 37.2906 -120.3928 287° West 413 475 37,100 -984 Descending Oakland Center
Sun 07:45:42 PM 37.3253 -120.5361 287° West 426 490 36,000 -1,122 Descending Oakland Center
Sun 07:46:44 PM 37.3617 -120.6794 288° West 430 495 34,800 -1,122 Descending Oakland Center
Sun 07:47:45 PM 37.3950 -120.8233 286° West 428 493 33,700 -1,131 Descending Oakland Center
Sun 07:48:46 PM 37.4297 -120.9625 287° West 419 482 32,500 -1,131 Descending Oakland Center
Sun 07:49:47 PM 37.4619 -121.1025 286° West 417 480 31,400 -1,231 Descending Oakland Center
Sun 07:50:43 PM 37.5000 -121.2500 288° West 404 465 30,100 -1,862 Descending Northern Cal TRACON
Sun 07:51:43 PM 37.5333 -121.3833 288° West 405 466 27,800 -2,421 Descending Northern Cal TRACON
Sun 07:52:37 PM 37.5667 -121.5000 290° West 398 458 25,500 -2,526 Descending Northern Cal TRACON
Sun 07:53:37 PM 37.5833 -121.6333 279° West 391 450 23,000 -2,500 Descending Northern Cal TRACON
Sun 07:54:37 PM 37.6167 -121.7667 288° West 365 420 20,500 -2,500 Descending Northern Cal TRACON
Sun 07:55:37 PM 37.6500 -121.8833 290° West 348 400 18,000 -2,400 Descending Northern Cal TRACON
Sun 07:56:37 PM 37.6667 -122.0000 280° West 338 389 15,700 -2,400 Descending Northern Cal TRACON
Sun 07:57:37 PM 37.7333 -122.0833 315° West 346 398 13,200 -1,960 Descending Northern Cal TRACON
Sun 07:59:59 PM 37.8650 -122.2733 311° West 299 344 9,100 -2,069 Descending Oakland Center
Sun 08:01:00 PM 37.9181 -122.3514 311° West 297 342 6,200 -1,525 Descending Oakland Center
Sun 08:02:01 PM 37.9775 -122.3906 333° Northwest 273 314 6,000 -585 Descending Oakland Center
Sun 08:03:03 PM 38.0503 -122.3603 18° North 279 321 5,000 -1,512 Descending Oakland Center
Sun 08:04:04 PM 38.1094 -122.3156 31° Northeast 265 305 2,900 -1,574 Descending Oakland Center
Sun 08:05:05 PM 38.1581 -122.2622 41° Northeast 238 274 1,800 -541 Descending Oakland Center
Sun 08:06:06 PM 38.1781 -122.2092 64° Northeast 188 216 1,800 -541 Level Oakland Center
Sun 08:07:07 PM 38.2139 -122.2286 337° Northwest 153 176 700 -1,082 Descending Oakland Center

Login

Don't have an account? Register now (free) for customized features, flight alerts, and more!